createdAt,value
2019-03-29T00:02:23.138Z,7.60
2019-03-29T00:05:03.927Z,8.00
2019-03-29T00:07:44.591Z,7.27
2019-03-29T00:10:25.407Z,8.23
2019-03-29T00:13:06.448Z,7.37
2019-03-29T00:15:47.142Z,7.63
2019-03-29T00:18:27.738Z,7.60
2019-03-29T00:21:08.183Z,7.40
2019-03-29T00:23:49.141Z,7.40
2019-03-29T00:26:29.875Z,7.13
2019-03-29T00:29:10.587Z,6.73
2019-03-29T00:31:50.984Z,6.47
2019-03-29T00:34:31.362Z,6.67
2019-03-29T00:37:11.884Z,6.40
2019-03-29T00:39:52.764Z,7.17
2019-03-29T00:42:33.733Z,7.07
2019-03-29T00:45:16.287Z,7.77
2019-03-29T00:47:57.423Z,6.63
2019-03-29T00:50:38.225Z,7.20
2019-03-29T00:53:19.277Z,6.67
2019-03-29T00:56:00.248Z,7.27
2019-03-29T00:58:41.146Z,7.23
2019-03-29T01:01:21.909Z,7.07
2019-03-29T01:04:03.058Z,7.47
2019-03-29T01:06:43.559Z,7.37
2019-03-29T01:09:24.521Z,6.47
2019-03-29T01:12:05.218Z,6.63
2019-03-29T01:14:46.054Z,7.67
2019-03-29T01:17:26.864Z,6.73
2019-03-29T01:20:07.693Z,7.13
2019-03-29T01:22:48.594Z,7.40
2019-03-29T01:25:29.269Z,6.80
2019-03-29T01:28:09.873Z,8.07
2019-03-29T01:30:50.463Z,6.80
2019-03-29T01:33:31.312Z,6.63
2019-03-29T01:36:12.039Z,6.83
2019-03-29T01:38:52.793Z,6.23
2019-03-29T01:41:33.274Z,7.10
2019-03-29T01:44:14.005Z,7.57
2019-03-29T01:46:54.513Z,6.90
2019-03-29T01:49:35.480Z,7.13
2019-03-29T01:52:16.090Z,7.40
2019-03-29T01:54:57.118Z,8.03
2019-03-29T01:57:38.237Z,7.07
2019-03-29T02:00:18.987Z,6.83
2019-03-29T02:02:59.770Z,6.40
2019-03-29T02:05:40.482Z,6.77
2019-03-29T02:08:34.822Z,6.63
2019-03-29T02:11:03.781Z,6.60
2019-03-29T02:13:44.693Z,7.47
2019-03-29T02:16:25.705Z,7.80
2019-03-29T02:19:06.337Z,7.37
2019-03-29T02:21:46.847Z,6.73
2019-03-29T02:24:27.278Z,8.00
2019-03-29T02:27:07.817Z,7.43
2019-03-29T02:29:48.337Z,7.90
2019-03-29T02:32:28.609Z,7.70
2019-03-29T02:35:09.149Z,8.03
2019-03-29T02:37:49.443Z,8.27
2019-03-29T02:40:30.109Z,8.10
2019-03-29T02:43:11.133Z,8.57
2019-03-29T02:45:51.493Z,9.00
2019-03-29T02:48:31.748Z,8.50
2019-03-29T02:51:12.505Z,10.03
2019-03-29T02:53:53.070Z,8.97
2019-03-29T02:56:33.624Z,7.80
2019-03-29T02:59:14.440Z,7.20
2019-03-29T03:01:55.304Z,6.90
2019-03-29T03:04:35.581Z,8.07
2019-03-29T03:07:16.129Z,8.53
2019-03-29T03:09:56.524Z,7.40
2019-03-29T03:12:36.848Z,7.13
2019-03-29T03:15:17.754Z,7.23
2019-03-29T03:17:58.255Z,7.57
2019-03-29T03:20:39.237Z,8.67
2019-03-29T03:23:19.795Z,8.07
2019-03-29T03:26:00.412Z,7.60
2019-03-29T03:28:40.729Z,7.67
2019-03-29T03:31:21.627Z,8.30
2019-03-29T03:34:01.994Z,8.40
2019-03-29T03:36:43.083Z,8.87
2019-03-29T03:39:31.694Z,9.00
2019-03-29T03:42:06.193Z,8.80
2019-03-29T03:44:47.297Z,8.63
2019-03-29T03:47:28.073Z,8.77
2019-03-29T03:50:08.684Z,8.70
2019-03-29T03:52:49.274Z,9.30
2019-03-29T03:55:29.668Z,9.93
2019-03-29T03:58:10.374Z,9.03
2019-03-29T04:00:51.420Z,10.37
2019-03-29T04:03:31.919Z,9.97
2019-03-29T04:06:12.820Z,10.17
2019-03-29T04:08:53.131Z,9.43
2019-03-29T04:11:33.760Z,9.63
2019-03-29T04:14:14.227Z,8.97
2019-03-29T04:16:55.068Z,9.30
2019-03-29T04:19:35.725Z,9.57
2019-03-29T04:22:16.475Z,9.40
2019-03-29T04:24:57.123Z,10.20
2019-03-29T04:27:38.164Z,9.00
2019-03-29T04:30:19.135Z,8.80
2019-03-29T04:32:59.727Z,9.13
2019-03-29T04:35:40.515Z,8.57
2019-03-29T04:38:21.337Z,9.50
2019-03-29T04:41:01.971Z,8.87
2019-03-29T04:43:42.834Z,8.43
2019-03-29T04:46:23.297Z,9.00
2019-03-29T04:49:03.916Z,8.37
2019-03-29T04:51:44.733Z,9.77
2019-03-29T04:54:25.519Z,9.00
2019-03-29T04:57:06.122Z,9.10
2019-03-29T04:59:47.006Z,10.00
2019-03-29T05:02:27.957Z,8.93
2019-03-29T05:05:08.788Z,10.07
2019-03-29T05:07:49.398Z,9.40
2019-03-29T05:10:30.244Z,9.77
2019-03-29T05:13:10.903Z,10.03
2019-03-29T05:15:51.693Z,9.27
2019-03-29T05:18:32.543Z,9.53
2019-03-29T05:21:13.340Z,9.17
2019-03-29T05:23:53.989Z,9.83
2019-03-29T05:26:34.466Z,9.53
2019-03-29T05:29:15.321Z,10.87
2019-03-29T05:31:56.226Z,10.43
2019-03-29T05:34:37.169Z,10.70
2019-03-29T05:37:18.013Z,9.67
2019-03-29T05:39:58.792Z,9.30
2019-03-29T05:42:39.726Z,10.30
2019-03-29T05:45:20.519Z,10.90
2019-03-29T05:48:01.057Z,9.30
2019-03-29T05:50:41.838Z,9.57
2019-03-29T05:53:22.600Z,10.20
2019-03-29T05:56:03.264Z,10.33
2019-03-29T05:58:44.024Z,9.73
2019-03-29T06:01:24.368Z,11.23
2019-03-29T06:04:05.226Z,10.10
2019-03-29T06:06:46.047Z,10.60
2019-03-29T06:09:26.943Z,11.37
2019-03-29T06:12:07.765Z,11.37
2019-03-29T06:14:48.367Z,10.33
2019-03-29T06:17:29.184Z,11.10
2019-03-29T06:20:09.961Z,11.03
2019-03-29T06:22:50.961Z,11.17
2019-03-29T06:25:31.755Z,11.37
2019-03-29T06:28:12.448Z,11.47
2019-03-29T06:30:51.207Z,11.17
2019-03-29T06:33:50.617Z,11.10
2019-03-29T06:36:28.512Z,11.73
2019-03-29T06:39:16.244Z,11.40
2019-03-29T06:42:03.944Z,11.63
2019-03-29T06:44:51.723Z,10.47
2019-03-29T06:47:39.441Z,12.17
2019-03-29T06:50:27.195Z,12.20
2019-03-29T06:53:14.948Z,13.63
2019-03-29T06:58:50.496Z,15.17
2019-03-29T07:01:30.961Z,16.03
2019-03-29T07:04:11.797Z,14.93
2019-03-29T07:06:52.807Z,14.33
2019-03-29T07:09:33.556Z,14.40
2019-03-29T07:12:14.337Z,15.93
2019-03-29T07:14:54.976Z,14.63
2019-03-29T07:17:35.999Z,13.43
2019-03-29T07:20:16.711Z,12.53
2019-03-29T07:22:57.345Z,13.10
2019-03-29T07:25:37.993Z,13.80
2019-03-29T07:28:18.618Z,12.77
2019-03-29T07:30:59.674Z,13.77
2019-03-29T07:33:40.266Z,13.13
2019-03-29T07:36:21.059Z,13.77
2019-03-29T07:39:01.728Z,14.67
2019-03-29T07:41:42.545Z,15.03
2019-03-29T07:44:23.135Z,14.07
2019-03-29T07:47:04.117Z,13.90
2019-03-29T07:49:44.517Z,14.30
2019-03-29T07:52:25.168Z,12.33
2019-03-29T07:55:05.981Z,12.97
2019-03-29T07:57:46.981Z,11.83
2019-03-29T08:00:27.826Z,13.03
2019-03-29T08:03:08.758Z,12.00
2019-03-29T08:05:49.613Z,11.73
2019-03-29T08:08:33.354Z,13.70
2019-03-29T08:11:25.435Z,12.27
2019-03-29T08:13:55.742Z,11.73
2019-03-29T08:16:36.417Z,10.83
2019-03-29T08:19:17.046Z,10.77
2019-03-29T08:21:58.096Z,11.30
2019-03-29T08:24:38.747Z,10.50
2019-03-29T08:27:19.652Z,9.77
2019-03-29T08:30:00.435Z,9.33
2019-03-29T08:32:41.247Z,9.63
2019-03-29T08:35:22.230Z,8.77
2019-03-29T08:38:05.973Z,8.90
2019-03-29T08:40:45.441Z,9.57
2019-03-29T08:43:25.792Z,9.27
2019-03-29T08:46:06.962Z,7.73
2019-03-29T08:48:47.804Z,8.37
2019-03-29T08:51:28.588Z,8.13
2019-03-29T08:54:09.532Z,7.10
2019-03-29T08:56:50.224Z,7.30
2019-03-29T08:59:31.333Z,7.67
2019-03-29T09:02:12.170Z,6.53
2019-03-29T09:04:52.971Z,6.63
2019-03-29T09:07:44.106Z,5.87
2019-03-29T09:10:16.467Z,6.20
2019-03-29T09:12:57.486Z,6.27
2019-03-29T09:15:38.320Z,5.03
2019-03-29T09:18:18.961Z,5.13
2019-03-29T09:20:59.623Z,5.00
2019-03-29T09:23:40.416Z,5.40
2019-03-29T09:26:21.389Z,3.80
2019-03-29T09:29:02.093Z,3.97
2019-03-29T09:31:42.756Z,4.20
2019-03-29T09:34:23.654Z,3.80
2019-03-29T09:37:04.226Z,3.63
2019-03-29T09:39:44.690Z,3.40
2019-03-29T09:42:29.517Z,3.60
2019-03-29T09:45:08.210Z,3.77
2019-03-29T09:47:48.663Z,3.70
2019-03-29T09:50:29.598Z,3.17
2019-03-29T09:53:10.302Z,3.40
2019-03-29T09:55:53.400Z,3.90
2019-03-29T09:58:33.443Z,3.30
2019-03-29T10:01:14.364Z,4.07
2019-03-29T10:03:54.696Z,3.33
2019-03-29T10:06:35.263Z,3.20
2019-03-29T10:09:16.062Z,3.13
2019-03-29T10:11:57.087Z,3.30
2019-03-29T10:14:38.046Z,3.12
2019-03-29T10:17:18.851Z,2.75
2019-03-29T10:19:59.779Z,2.22
2019-03-29T10:22:40.358Z,2.62
2019-03-29T10:25:21.679Z,2.20
2019-03-29T10:28:02.426Z,2.62
2019-03-29T10:30:46.220Z,2.37
2019-03-29T10:33:25.302Z,2.30
2019-03-29T10:36:05.879Z,2.70
2019-03-29T10:38:46.568Z,2.45
2019-03-29T10:41:27.128Z,2.33
2019-03-29T10:44:07.626Z,4.05
2019-03-29T10:46:47.961Z,2.62
2019-03-29T10:49:28.645Z,2.80
2019-03-29T10:52:09.562Z,2.40
2019-03-29T10:54:50.192Z,2.40
2019-03-29T10:57:30.569Z,2.40
2019-03-29T11:00:12.947Z,2.33
2019-03-29T11:02:54.073Z,2.30
2019-03-29T11:05:35.003Z,1.70
2019-03-29T11:08:15.767Z,2.17
2019-03-29T11:10:56.339Z,2.02
2019-03-29T11:13:36.911Z,2.33
2019-03-29T11:16:17.832Z,2.30
2019-03-29T11:18:58.584Z,2.22
2019-03-29T11:21:39.072Z,1.95
2019-03-29T11:24:19.756Z,2.00
2019-03-29T11:27:00.376Z,1.82
2019-03-29T11:29:40.687Z,2.60
2019-03-29T11:32:21.350Z,2.22
2019-03-29T11:35:02.385Z,2.47
2019-03-29T11:37:43.057Z,2.00
2019-03-29T11:40:23.871Z,2.17
2019-03-29T11:43:04.296Z,2.30
2019-03-29T11:45:45.150Z,1.98
2019-03-29T11:48:25.852Z,2.33
2019-03-29T11:51:18.555Z,2.47
2019-03-29T11:53:50.969Z,2.65
2019-03-29T11:56:31.556Z,2.60
2019-03-29T11:59:12.196Z,1.95
2019-03-29T12:01:52.717Z,2.55
2019-03-29T12:04:33.585Z,2.83
2019-03-29T12:07:14.156Z,2.72
2019-03-29T12:09:54.693Z,3.33
2019-03-29T12:12:35.377Z,2.83
2019-03-29T12:15:15.961Z,2.27
2019-03-29T12:17:56.367Z,2.55
2019-03-29T12:20:37.055Z,2.87
2019-03-29T12:23:17.503Z,3.00
2019-03-29T12:25:58.312Z,3.22
2019-03-29T12:28:37.057Z,3.27
2019-03-29T12:31:24.853Z,3.40
2019-03-29T12:34:12.578Z,3.65
2019-03-29T12:37:00.307Z,3.08
2019-03-29T12:39:48.072Z,3.72
2019-03-29T12:42:35.770Z,3.90
2019-03-29T12:45:23.508Z,2.83
2019-03-29T12:48:11.217Z,3.95
2019-03-29T12:50:58.997Z,3.37
2019-03-29T12:53:46.690Z,3.22
2019-03-29T12:56:34.421Z,3.25
2019-03-29T12:59:22.323Z,3.35
2019-03-29T13:16:39.722Z,3.25
2019-03-29T13:19:27.460Z,3.17
2019-03-29T13:25:10.113Z,3.55
2019-03-29T13:27:59.521Z,3.00
2019-03-29T13:30:47.336Z,3.30
2019-03-29T13:33:35.062Z,2.65
2019-03-29T13:36:22.796Z,3.30
2019-03-29T13:39:10.546Z,3.20
2019-03-29T13:41:58.290Z,2.92
2019-03-29T13:44:46.012Z,5.05
2019-03-29T13:47:33.921Z,3.08
2019-03-29T13:50:21.681Z,2.67
2019-03-29T13:53:09.462Z,3.02
2019-03-29T13:55:57.219Z,2.60
2019-03-29T13:58:44.952Z,2.70
2019-03-29T14:01:23.837Z,2.62
2019-03-29T14:04:11.605Z,1.95
2019-03-29T14:06:59.305Z,2.42
2019-03-29T14:09:47.025Z,3.05
2019-03-29T14:12:34.731Z,2.75
2019-03-29T14:18:29.281Z,2.30
2019-03-29T14:21:16.979Z,3.40
2019-03-29T14:24:04.721Z,2.95
2019-03-29T14:26:52.421Z,3.30
2019-03-29T14:29:40.158Z,3.30
2019-03-29T14:32:27.887Z,2.98
2019-03-29T14:35:15.599Z,3.52
2019-03-29T14:38:03.402Z,3.80
2019-03-29T14:40:51.119Z,3.10
2019-03-29T14:43:38.919Z,2.80
2019-03-29T14:46:26.605Z,2.77
2019-03-29T14:49:14.354Z,3.37
2019-03-29T14:52:02.051Z,3.27
2019-03-29T14:57:43.061Z,3.15
2019-03-29T15:00:23.950Z,3.02
2019-03-29T15:03:04.725Z,2.98
2019-03-29T15:05:45.399Z,3.08
2019-03-29T15:08:26.041Z,2.85
2019-03-29T15:11:06.617Z,2.30
2019-03-29T15:13:47.294Z,2.65
2019-03-29T15:16:28.138Z,2.17
2019-03-29T15:19:08.906Z,1.60
2019-03-29T15:21:49.966Z,1.80
2019-03-29T15:24:30.866Z,1.30
2019-03-29T15:27:11.800Z,1.87
2019-03-29T15:29:52.666Z,2.08
2019-03-29T15:32:33.492Z,2.20
2019-03-29T15:35:14.177Z,1.82
2019-03-29T15:37:54.766Z,1.37
2019-03-29T15:40:35.315Z,1.65
2019-03-29T15:43:15.946Z,1.60
2019-03-29T15:45:56.509Z,2.00
2019-03-29T15:48:36.989Z,1.40
2019-03-29T15:51:17.452Z,1.50
2019-03-29T15:53:58.342Z,1.50
2019-03-29T15:56:38.893Z,1.50
2019-03-29T15:59:19.282Z,1.70
2019-03-29T16:02:00.386Z,1.42
2019-03-29T16:04:41.011Z,1.20
2019-03-29T16:07:21.601Z,1.47
2019-03-29T16:10:02.505Z,1.40
2019-03-29T16:12:43.472Z,1.72
2019-03-29T16:15:34.966Z,1.75
2019-03-29T16:18:06.776Z,2.67
2019-03-29T16:20:47.394Z,1.40
2019-03-29T16:23:28.217Z,1.40
2019-03-29T16:26:08.816Z,1.50
2019-03-29T16:28:49.379Z,1.50
2019-03-29T16:31:29.835Z,1.60
2019-03-29T16:34:10.191Z,1.60
2019-03-29T16:36:50.679Z,2.10
2019-03-29T16:39:31.286Z,1.65
2019-03-29T16:42:11.795Z,1.57
2019-03-29T16:44:52.259Z,1.95
2019-03-29T16:47:33.168Z,1.70
2019-03-29T16:50:13.885Z,2.20
2019-03-29T16:52:54.710Z,2.03
2019-03-29T16:55:35.279Z,1.93
2019-03-29T16:58:16.144Z,2.30
2019-03-29T17:00:56.657Z,1.93
2019-03-29T17:03:37.090Z,2.13
2019-03-29T17:06:17.622Z,2.00
2019-03-29T17:08:58.527Z,3.63
2019-03-29T17:11:39.048Z,2.30
2019-03-29T17:14:19.608Z,2.10
2019-03-29T17:17:00.310Z,2.20
2019-03-29T17:19:41.444Z,2.50
2019-03-29T17:22:22.054Z,1.77
2019-03-29T17:25:02.917Z,2.07
2019-03-29T17:27:43.736Z,2.40
2019-03-29T17:30:24.601Z,2.00
2019-03-29T17:33:05.305Z,2.33
2019-03-29T17:35:46.147Z,2.37
2019-03-29T17:38:26.751Z,2.80
2019-03-29T17:41:07.977Z,2.50
2019-03-29T17:43:48.739Z,2.37
2019-03-29T17:46:29.478Z,2.50
2019-03-29T17:49:10.110Z,2.60
2019-03-29T17:51:50.935Z,3.13
2019-03-29T17:54:31.537Z,2.60
2019-03-29T17:57:12.048Z,2.43
2019-03-29T17:59:53.118Z,2.40
2019-03-29T18:02:33.886Z,3.50
2019-03-29T18:05:14.817Z,3.00
2019-03-29T18:07:55.544Z,2.60
2019-03-29T18:10:36.422Z,2.40
2019-03-29T18:13:18.969Z,2.40
2019-03-29T18:16:00.027Z,2.43
2019-03-29T18:18:41.065Z,2.13
2019-03-29T18:21:21.677Z,1.80
2019-03-29T18:24:02.415Z,1.97
2019-03-29T18:26:43.468Z,1.67
2019-03-29T18:29:24.322Z,1.83
2019-03-29T18:32:04.771Z,2.00
2019-03-29T18:34:44.990Z,2.40
2019-03-29T18:37:25.565Z,2.17
2019-03-29T18:40:06.195Z,2.60
2019-03-29T18:42:47.205Z,2.83
2019-03-29T18:45:27.975Z,2.60
2019-03-29T18:48:09.023Z,2.13
2019-03-29T18:50:49.611Z,2.63
2019-03-29T18:53:30.294Z,2.73
2019-03-29T18:56:11.144Z,3.13
2019-03-29T18:58:52.120Z,3.13
2019-03-29T19:01:32.992Z,3.67
2019-03-29T19:04:13.305Z,4.10
2019-03-29T19:06:54.304Z,3.60
2019-03-29T19:09:35.034Z,3.70
2019-03-29T19:12:15.457Z,3.53
2019-03-29T19:14:56.326Z,3.80
2019-03-29T19:17:36.776Z,3.97
2019-03-29T19:20:27.277Z,3.70
2019-03-29T19:22:59.955Z,3.07
2019-03-29T19:25:40.748Z,3.30
2019-03-29T19:28:22.556Z,3.10
2019-03-29T19:31:03.249Z,2.97
2019-03-29T19:33:43.938Z,3.93
2019-03-29T19:36:24.519Z,12.47
2019-03-29T19:39:05.364Z,8.00
2019-03-29T19:41:44.130Z,5.60
2019-03-29T19:44:31.994Z,5.47
2019-03-29T19:47:19.691Z,4.33
2019-03-29T19:50:07.475Z,5.60
2019-03-29T19:56:02.089Z,5.40
2019-03-29T19:58:49.852Z,4.90
2019-03-29T20:01:30.793Z,5.03
2019-03-29T20:04:11.583Z,4.10
2019-03-29T20:06:52.303Z,4.47
2019-03-29T20:09:33.313Z,8.70
2019-03-29T20:12:13.944Z,6.17
2019-03-29T20:14:54.547Z,4.23
2019-03-29T20:17:35.224Z,5.93
2019-03-29T20:20:15.767Z,5.33
2019-03-29T20:22:56.312Z,5.43
2019-03-29T20:25:37.245Z,4.90
2019-03-29T20:28:17.785Z,4.93
2019-03-29T20:30:58.724Z,4.90
2019-03-29T20:33:39.524Z,5.53
2019-03-29T20:36:23.166Z,5.63
2019-03-29T20:39:03.410Z,5.40
2019-03-29T20:41:43.785Z,6.00
2019-03-29T20:44:24.599Z,5.60
2019-03-29T20:47:05.409Z,4.80
2019-03-29T20:49:46.051Z,5.50
2019-03-29T20:52:26.720Z,5.53
2019-03-29T20:55:07.665Z,5.73
2019-03-29T20:57:48.685Z,5.60
2019-03-29T21:00:29.160Z,5.37
2019-03-29T21:03:09.760Z,5.57
2019-03-29T21:05:50.189Z,5.33
2019-03-29T21:08:31.201Z,4.73
2019-03-29T21:11:12.069Z,5.17
2019-03-29T21:13:53.006Z,5.27
2019-03-29T21:16:33.538Z,5.23
2019-03-29T21:19:14.159Z,5.20
2019-03-29T21:21:55.021Z,5.67
2019-03-29T21:24:36.036Z,5.40
2019-03-29T21:27:16.700Z,5.63
2019-03-29T21:29:57.324Z,5.43
2019-03-29T21:32:38.124Z,5.63
2019-03-29T21:35:18.844Z,4.87
2019-03-29T21:37:59.554Z,4.83
2019-03-29T21:40:40.270Z,5.30
2019-03-29T21:43:21.028Z,4.70
2019-03-29T21:46:01.817Z,4.20
2019-03-29T21:48:42.155Z,4.70
2019-03-29T21:51:22.739Z,4.83
2019-03-29T21:54:03.376Z,4.07
2019-03-29T21:56:43.692Z,4.23
2019-03-29T21:59:26.371Z,4.37
2019-03-29T22:02:07.230Z,4.30
2019-03-29T22:04:47.693Z,4.50
2019-03-29T22:07:28.313Z,4.30
2019-03-29T22:10:08.740Z,3.93
2019-03-29T22:12:49.365Z,4.00
2019-03-29T22:15:30.077Z,4.67
2019-03-29T22:18:10.799Z,4.07
2019-03-29T22:20:51.855Z,3.77
2019-03-29T22:23:32.510Z,4.03
2019-03-29T22:26:13.274Z,4.37
2019-03-29T22:28:53.825Z,4.10
2019-03-29T22:31:34.205Z,3.90
2019-03-29T22:34:14.596Z,4.37
2019-03-29T22:36:55.508Z,4.40
2019-03-29T22:39:35.850Z,4.70
2019-03-29T22:42:16.753Z,4.73
2019-03-29T22:44:57.305Z,4.60
2019-03-29T22:47:38.056Z,4.60
2019-03-29T22:50:18.809Z,4.33
2019-03-29T22:52:59.504Z,4.63
2019-03-29T22:55:40.353Z,4.37
2019-03-29T22:58:20.973Z,4.27
2019-03-29T23:01:01.963Z,3.77
2019-03-29T23:03:42.855Z,3.90
2019-03-29T23:06:23.810Z,3.97
2019-03-29T23:09:04.400Z,3.70
2019-03-29T23:11:45.023Z,4.30
2019-03-29T23:14:25.935Z,3.50
2019-03-29T23:17:06.620Z,3.83
2019-03-29T23:19:47.484Z,4.53
2019-03-29T23:22:28.377Z,4.17
2019-03-29T23:25:07.107Z,3.87
2019-03-29T23:27:54.934Z,4.10
2019-03-29T23:30:42.622Z,3.37
2019-03-29T23:33:30.470Z,3.50
2019-03-29T23:36:18.151Z,3.90
2019-03-29T23:39:05.932Z,3.77
2019-03-29T23:41:53.660Z,3.87
2019-03-29T23:44:41.391Z,4.10
2019-03-29T23:47:29.097Z,4.10
2019-03-29T23:50:16.832Z,4.47
2019-03-29T23:53:04.636Z,4.57
2019-03-29T23:55:52.324Z,4.00
2019-03-29T23:58:40.190Z,3.97
